Time;durP1;ratioP1;P1;durP2;ratioP2;P2;SDS_P1;SDS_P2;PMS_P1;PMS_P2;Temp;Humidity;BMP_temperature;BMP_pressure;BME280_temperature;BME280_humidity;BME280_pressure;Samples;Min_cycle;Max_cycle;Signal;HPM_P1;HPM_P2
2022/11/12 00:02:12;;;;;;;15.95;11.18;;;;;;;5.75;100.00;101066.95;1741046;80;21028;-64
2022/11/12 00:04:57;;;;;;;12.03;10.58;;;;;;;5.78;100.00;101065.20;1761469;78;20989;-63
2022/11/12 00:07:42;;;;;;;15.63;10.82;;;;;;;5.80;100.00;101076.92;1758374;79;21707;-63
2022/11/12 00:10:28;;;;;;;13.98;10.05;;;;;;;5.84;100.00;101074.77;1759287;79;21572;-64
2022/11/12 00:13:14;;;;;;;18.82;11.18;;;;;;;5.88;100.00;101073.00;1760082;80;21788;-67
2022/11/12 00:15:59;;;;;;;14.93;10.72;;;;;;;5.88;100.00;101068.67;1761553;80;21529;-63
2022/11/12 00:18:47;;;;;;;13.83;10.38;;;;;;;5.92;100.00;101065.62;1753224;79;21593;-64
2022/11/12 00:21:32;;;;;;;16.20;10.35;;;;;;;5.94;100.00;101070.41;1758713;80;21636;-63
2022/11/12 00:24:17;;;;;;;13.03;10.35;;;;;;;5.97;100.00;101071.31;1765368;80;21556;-63
2022/11/12 00:27:02;;;;;;;15.45;10.48;;;;;;;6.03;100.00;101073.05;1742126;79;21971;-63
2022/11/12 00:29:47;;;;;;;12.70;9.95;;;;;;;6.07;100.00;101076.53;1767841;79;21577;-65
2022/11/12 00:32:36;;;;;;;16.45;9.98;;;;;;;6.09;100.00;101081.31;1760018;79;21141;-63
2022/11/12 00:35:21;;;;;;;12.45;10.05;;;;;;;6.12;100.00;101073.03;1758963;79;21213;-63
2022/11/12 00:38:06;;;;;;;13.32;9.98;;;;;;;6.11;100.00;101073.89;1765346;79;21529;-63
2022/11/12 00:40:52;;;;;;;16.20;10.15;;;;;;;6.15;100.00;101073.45;1756443;80;21880;-64
2022/11/12 00:43:37;;;;;;;13.93;9.18;;;;;;;6.19;100.00;101068.21;1753315;80;21112;-63
2022/11/12 00:46:22;;;;;;;15.53;9.68;;;;;;;6.22;100.00;101069.52;1766230;79;21533;-63
2022/11/12 00:49:07;;;;;;;12.98;9.75;;;;;;;6.24;100.00;101075.61;1763062;80;21568;-63
2022/11/12 00:51:52;;;;;;;14.25;10.28;;;;;;;6.22;100.00;101077.80;1755956;80;21526;-64
2022/11/12 00:54:39;;;;;;;14.23;9.58;;;;;;;6.24;100.00;101074.75;1761844;80;21742;-65
2022/11/12 00:57:23;;;;;;;13.55;9.93;;;;;;;6.24;100.00;101073.44;1756425;80;21552;-63
2022/11/12 01:00:14;;;;;;;12.15;9.10;;;;;;;6.28;100.00;101069.08;1762037;80;21606;-63
2022/11/12 01:02:59;;;;;;;9.93;8.93;;;;;;;6.33;100.00;101075.14;1758007;80;21000;-65
2022/11/12 01:05:44;;;;;;;15.13;9.85;;;;;;;6.35;100.00;101076.03;1755192;80;21025;-63
2022/11/12 01:08:29;;;;;;;12.15;8.95;;;;;;;6.35;100.00;101078.20;1764891;79;22290;-63
2022/11/12 01:11:24;;;;;;;14.90;9.43;;;;;;;6.32;100.00;101073.42;1748446;80;21480;-63
2022/11/12 01:14:11;;;;;;;17.98;9.45;;;;;;;6.32;100.00;101070.81;1742365;80;21069;-63
2022/11/12 01:16:56;;;;;;;13.38;9.43;;;;;;;6.33;100.00;101064.69;1757062;80;21518;-65
2022/11/12 01:19:42;;;;;;;15.80;10.30;;;;;;;6.33;100.00;101068.20;1766634;80;21446;-64
2022/11/12 01:22:27;;;;;;;11.35;9.93;;;;;;;6.34;100.00;101072.98;1759763;80;21885;-65
2022/11/12 01:25:12;;;;;;;14.15;10.10;;;;;;;6.40;100.00;101075.16;1763964;79;21052;-62
2022/11/12 01:27:57;;;;;;;15.95;11.05;;;;;;;6.42;100.00;101072.09;1761576;79;21048;-63
2022/11/12 01:30:43;;;;;;;13.40;10.08;;;;;;;6.43;100.00;101067.28;1764519;80;21018;-64
2022/11/12 01:33:28;;;;;;;14.50;10.18;;;;;;;6.42;100.00;101062.95;1753422;79;21521;-65
2022/11/12 01:36:14;;;;;;;16.12;10.30;;;;;;;6.42;100.00;101060.75;1743398;80;21848;-63
2022/11/12 01:39:00;;;;;;;15.88;10.08;;;;;;;6.44;100.00;101055.08;1748786;79;21393;-63
2022/11/12 01:41:46;;;;;;;12.47;9.15;;;;;;;6.41;100.00;101053.36;1758940;80;20958;-64
2022/11/12 01:44:31;;;;;;;11.78;9.40;;;;;;;6.43;100.00;101055.97;1742194;80;21457;-64
2022/11/12 01:47:22;;;;;;;15.35;9.40;;;;;;;6.47;100.00;101058.14;1725971;80;20961;-64
2022/11/12 01:50:27;;;;;;;10.05;8.03;;;;;;;6.45;100.00;101057.28;1733951;80;21971;-64
2022/11/12 01:53:12;;;;;;;9.65;8.53;;;;;;;6.49;100.00;101061.62;1753450;79;21549;-63
2022/11/12 01:55:59;;;;;;;10.53;8.85;;;;;;;6.45;100.00;101052.05;1766123;79;21522;-64
2022/11/12 01:58:44;;;;;;;10.63;9.03;;;;;;;6.40;100.00;101059.89;1751079;80;21085;-63
2022/11/12 02:01:31;;;;;;;9.73;8.50;;;;;;;6.39;100.00;101060.78;1773835;80;21410;-63
2022/11/12 02:04:17;;;;;;;15.00;9.73;;;;;;;6.40;100.00;101062.50;1752536;80;21833;-63
2022/11/12 02:07:03;;;;;;;11.35;9.15;;;;;;;6.41;100.00;101057.73;1734415;80;21509;-63
2022/11/12 02:09:48;;;;;;;12.20;9.83;;;;;;;6.41;100.00;101053.80;1756669;80;21085;-63
2022/11/12 02:15:37;;;;;;;13.20;9.58;;;;;;;6.39;100.00;101055.11;1762729;80;21462;-64
2022/11/12 02:18:22;;;;;;;12.90;9.05;;;;;;;6.33;100.00;101051.63;1742780;79;21815;-64
2022/11/12 02:21:08;;;;;;;9.48;8.50;;;;;;;6.29;100.00;101049.49;1740984;79;21703;-64
2022/11/12 02:24:17;;;;;;;13.48;9.33;;;;;;;6.26;100.00;101053.86;1747081;80;21573;-63
2022/11/12 02:27:04;;;;;;;11.63;9.18;;;;;;;6.27;100.00;101055.58;1756900;80;21583;-63
2022/11/12 02:29:49;;;;;;;11.65;9.33;;;;;;;6.23;100.00;101049.08;1756244;79;21434;-63
2022/11/12 02:32:36;;;;;;;11.73;8.83;;;;;;;6.23;100.00;101051.69;1764930;79;21549;-63
2022/11/12 02:35:21;;;;;;;12.35;8.48;;;;;;;6.21;100.00;101055.16;1747998;80;20981;-63
2022/11/12 02:38:07;;;;;;;9.80;8.73;;;;;;;6.24;100.00;101053.85;1756643;80;21524;-63
2022/11/12 02:40:52;;;;;;;11.97;8.35;;;;;;;6.25;100.00;101052.96;1751571;80;20998;-63
2022/11/12 02:43:39;;;;;;;12.20;8.88;;;;;;;6.23;100.00;101052.99;1753745;80;21628;-63
2022/11/12 02:46:24;;;;;;;12.93;8.25;;;;;;;6.26;100.00;101057.33;1765476;80;21557;-64
2022/11/12 02:49:09;;;;;;;15.08;9.05;;;;;;;6.27;100.00;101056.44;1749244;80;21506;-64
2022/11/12 02:51:54;;;;;;;12.65;8.95;;;;;;;6.32;100.00;101052.08;1761341;79;21618;-63
2022/11/12 02:54:39;;;;;;;11.08;8.63;;;;;;;6.34;100.00;101052.08;1763794;80;21064;-63
2022/11/12 02:57:24;;;;;;;11.05;9.15;;;;;;;6.36;100.00;101053.80;1751617;80;21504;-63
2022/11/12 03:00:11;;;;;;;14.13;10.23;;;;;;;6.34;100.00;101049.02;1750242;79;22183;-63
2022/11/12 03:02:59;;;;;;;11.03;8.33;;;;;;;6.35;100.00;101044.69;1760151;80;21494;-64
2022/11/12 03:05:44;;;;;;;;;;;;;;;6.35;100.00;101045.99;1767924;80;21130;-64
2022/11/12 03:08:29;;;;;;;13.50;8.53;;;;;;;6.26;100.00;101042.96;1754812;80;20312;-64
2022/11/12 03:11:15;;;;;;;11.22;8.48;;;;;;;6.23;100.00;101049.48;1752005;80;21013;-63
2022/11/12 03:14:02;;;;;;;10.25;8.35;;;;;;;6.26;100.00;101048.62;1761926;80;21867;-63
2022/11/12 03:16:47;;;;;;;12.03;8.78;;;;;;;6.27;100.00;101052.97;1776219;79;21055;-63
2022/11/12 03:19:32;;;;;;;9.05;8.00;;;;;;;6.27;100.00;101055.13;1753260;80;20969;-63
2022/11/12 03:22:18;;;;;;;11.35;8.60;;;;;;;6.27;100.00;101049.05;1758926;80;21670;-66
2022/11/12 03:25:05;;;;;;;11.35;8.88;;;;;;;6.26;100.00;101049.48;1760516;80;21136;-65
2022/11/12 03:28:01;;;;;;;10.43;8.28;;;;;;;6.28;100.00;101044.27;1766674;80;21767;-66
2022/11/12 03:30:45;;;;;;;11.12;8.93;;;;;;;6.30;100.00;101042.52;1764298;79;21425;-66
2022/11/12 03:33:30;;;;;;;14.23;9.33;;;;;;;6.31;100.00;101044.23;1752277;80;21501;-64
2022/11/12 03:36:15;;;;;;;11.73;9.05;;;;;;;6.31;100.00;101045.12;1755264;80;21497;-64
2022/11/12 03:39:00;;;;;;;11.50;9.13;;;;;;;6.29;100.00;101047.30;1766335;79;21584;-64
2022/11/12 03:41:45;;;;;;;12.73;8.80;;;;;;;6.33;100.00;101047.71;1741427;80;21798;-64
2022/11/12 03:44:31;;;;;;;13.58;9.55;;;;;;;6.33;100.00;101046.41;1753790;80;20997;-64
2022/11/12 03:47:17;;;;;;;12.82;8.65;;;;;;;6.35;100.00;101047.30;1745910;79;21501;-64
2022/11/12 03:50:03;;;;;;;12.15;9.00;;;;;;;6.36;100.00;101047.27;1760062;80;21439;-64
2022/11/12 03:52:51;;;;;;;10.85;8.85;;;;;;;6.39;100.00;101047.72;1754622;80;21429;-64
2022/11/12 03:55:37;;;;;;;12.50;9.05;;;;;;;6.40;100.00;101044.21;1762403;80;21780;-64
2022/11/12 03:58:22;;;;;;;12.33;9.00;;;;;;;6.39;100.00;101042.49;1757324;80;21445;-64
2022/11/12 04:01:08;;;;;;;10.60;9.23;;;;;;;6.42;100.00;101033.31;1759576;80;21040;-64
2022/11/12 04:03:52;;;;;;;11.22;8.95;;;;;;;6.41;100.00;101028.98;1761902;80;20958;-64
2022/11/12 04:09:44;;;;;;;11.05;9.83;;;;;;;6.44;100.00;101042.02;1760491;80;21509;-65
2022/11/12 04:15:33;;;;;;;10.72;9.08;;;;;;;6.48;100.00;101025.48;1689042;82;21462;-64
2022/11/12 04:27:43;;;;;;;12.93;9.03;;;;;;;6.63;100.00;101037.17;1715906;81;21547;-64
2022/11/12 04:30:27;;;;;;;11.05;9.28;;;;;;;6.65;100.00;101045.01;1752301;79;21565;-64
2022/11/12 04:33:12;;;;;;;11.95;9.48;;;;;;;6.68;100.00;101044.98;1738321;80;21005;-64
2022/11/12 04:35:57;;;;;;;10.32;8.80;;;;;;;6.76;100.00;101048.86;1756059;80;21654;-64
2022/11/12 04:38:43;;;;;;;12.10;9.05;;;;;;;6.79;100.00;101045.80;1761034;80;21780;-67
2022/11/12 04:47:38;;;;;;;12.73;8.50;;;;;;;6.86;100.00;101037.50;1760042;80;21533;-65
2022/11/12 04:50:23;;;;;;;12.58;8.73;;;;;;;6.91;100.00;101042.27;1738525;80;26830;-65
2022/11/12 04:53:08;;;;;;;9.43;8.48;;;;;;;6.95;100.00;101047.91;1758878;80;21521;-64
2022/11/12 04:55:55;;;;;;;10.98;9.20;;;;;;;6.67;100.00;101000.55;1760669;80;21612;-65
2022/11/12 04:58:40;;;;;;;13.53;8.77;;;;;;;6.96;100.00;101050.94;1765252;80;21751;-65
2022/11/12 05:01:25;;;;;;;12.00;8.55;;;;;;;6.98;100.00;101041.34;1734640;80;21519;-65
2022/11/12 05:04:11;;;;;;;10.18;8.83;;;;;;;7.04;100.00;101040.43;1763627;80;21170;-64
2022/11/12 05:06:56;;;;;;;13.98;9.33;;;;;;;7.05;100.00;101030.41;1754373;80;21770;-64
2022/11/12 05:09:41;;;;;;;10.95;9.45;;;;;;;7.10;100.00;101025.14;1716427;81;21507;-65
2022/11/12 05:12:26;;;;;;;11.05;9.80;;;;;;;7.11;100.00;101013.81;1683224;83;21690;-65
2022/11/12 05:15:11;;;;;;;11.65;9.68;;;;;;;7.10;100.00;101016.87;1699235;82;21630;-67
2022/11/12 05:17:56;;;;;;;13.40;9.80;;;;;;;7.12;100.00;101020.77;1704325;82;21526;-67
2022/11/12 05:20:43;;;;;;;14.73;9.65;;;;;;;7.10;100.00;101020.80;1698452;82;21565;-64
2022/11/12 05:23:28;;;;;;;15.40;10.10;;;;;;;7.09;100.00;101028.20;1691712;82;21643;-66
2022/11/12 05:26:13;;;;;;;12.88;9.00;;;;;;;7.10;100.00;101036.91;1699171;82;21628;-60
2022/11/12 05:28:58;;;;;;;15.80;10.78;;;;;;;7.13;100.00;101047.36;1699950;82;21639;-60
2022/11/12 05:31:43;;;;;;;11.63;9.80;;;;;;;7.20;100.00;101044.70;1716601;82;21639;-60
2022/11/12 05:34:28;;;;;;;10.60;9.38;;;;;;;7.25;100.00;101049.02;1700687;82;21808;-60
2022/11/12 05:37:14;;;;;;;15.28;10.45;;;;;;;7.29;100.00;101053.35;1693620;82;21568;-62
2022/11/12 05:39:59;;;;;;;12.88;10.05;;;;;;;7.30;100.00;101052.03;1697168;81;21505;-62
2022/11/12 05:42:44;;;;;;;17.37;10.98;;;;;;;7.32;100.00;101054.20;1670791;83;21492;-63
2022/11/12 05:45:31;;;;;;;14.00;10.65;;;;;;;7.37;100.00;101068.13;1760181;80;21584;-63
2022/11/12 05:48:16;;;;;;;16.85;10.18;;;;;;;7.36;100.00;101058.98;1757233;79;22194;-59
2022/11/12 05:51:01;;;;;;;10.88;9.70;;;;;;;7.36;100.00;101058.98;1739074;80;21490;-59
2022/11/12 05:53:46;;;;;;;11.88;10.03;;;;;;;7.38;100.00;101063.34;1678353;82;21561;-61
2022/11/12 05:56:33;;;;;;;14.58;10.28;;;;;;;7.43;100.00;101059.37;1759370;80;21013;-61
2022/11/12 05:59:19;;;;;;;12.43;10.10;;;;;;;7.47;100.00;101059.77;1759732;80;21457;-61
2022/11/12 06:02:04;;;;;;;10.65;9.55;;;;;;;7.50;100.00;101058.45;1751850;80;21933;-61
2022/11/12 06:04:49;;;;;;;11.65;10.45;;;;;;;7.54;100.00;101067.15;1762994;80;21580;-60
2022/11/12 06:07:34;;;;;;;16.65;10.13;;;;;;;7.56;100.00;101066.70;1763342;80;21600;-61
2022/11/12 06:10:19;;;;;;;15.85;10.53;;;;;;;7.61;100.00;101068.84;1761287;80;21469;-60
2022/11/12 06:13:04;;;;;;;17.35;11.03;;;;;;;7.66;100.00;101065.73;1746352;80;21610;-60
2022/11/12 11:40:15;;;;;;;11.55;8.80;;;;;;;12.14;100.00;100893.75;1845510;76;26854;-63
2022/11/12 11:43:17;;;;;;;11.40;7.45;;;;;;;12.30;100.00;100902.94;1823916;76;21541;-65
2022/11/12 11:46:28;;;;;;;11.55;8.23;;;;;;;12.41;100.00;100894.68;1802019;77;21770;-65
2022/11/12 11:49:35;;;;;;;11.38;6.95;;;;;;;12.52;100.00;100903.59;1802995;75;21573;-65
2022/11/12 11:52:35;;;;;;;12.18;7.83;;;;;;;12.95;100.00;100893.00;1826806;75;21142;-65
2022/11/12 11:55:45;;;;;;;9.70;7.22;;;;;;;13.57;100.00;100882.56;1821486;75;21038;-65
2022/11/12 11:58:56;;;;;;;7.80;6.47;;;;;;;13.98;100.00;100861.22;1802599;77;21581;-64
2022/11/12 12:02:09;;;;;;;12.65;6.97;;;;;;;14.19;100.00;100857.36;1813542;76;22081;-64
2022/11/12 12:05:03;;;;;;;9.38;6.90;;;;;;;14.33;100.00;100843.58;1810738;76;21426;-64
2022/11/12 12:08:03;;;;;;;11.33;7.50;;;;;;;14.23;100.00;100845.73;1819814;77;21589;-64
2022/11/12 12:11:15;;;;;;;10.95;7.45;;;;;;;13.94;100.00;100853.47;1831378;76;21481;-64
2022/11/12 12:14:48;;;;;;;11.45;7.00;;;;;;;13.89;100.00;100855.42;1790294;76;21787;-64
2022/11/12 12:17:58;;;;;;;9.83;6.55;;;;;;;14.00;100.00;100858.05;1804899;77;21979;-64
2022/11/12 12:21:14;;;;;;;12.40;6.60;;;;;;;14.18;100.00;100852.98;1820990;76;20986;-60
2022/11/12 12:24:21;;;;;;;9.45;6.40;;;;;;;14.24;100.00;100837.33;1785081;76;21597;-64
2022/11/12 12:27:13;;;;;;;8.35;6.80;;;;;;;14.33;100.00;100840.47;1816344;76;28590;-65
2022/11/12 12:30:06;;;;;;;9.15;7.37;;;;;;;14.37;100.00;100839.45;1814130;76;21590;-65
2022/11/12 12:33:17;;;;;;;10.72;6.95;;;;;;;14.33;100.00;100846.23;1756225;80;21866;-63
2022/11/12 12:36:14;;;;;;;7.17;6.42;;;;;;;14.31;100.00;100829.56;1764714;78;21082;-65
2022/11/12 12:39:11;;;;;;;8.70;6.40;;;;;;;14.36;100.00;100824.48;1764716;78;21645;-64
2022/11/12 12:41:59;;;;;;;;;;;;;;;14.38;100.00;100826.61;1741872;80;21538;-64
2022/11/12 12:44:59;;;;;;;10.30;6.67;;;;;;;14.16;100.00;100817.32;1763388;78;20133;-65
2022/11/12 12:47:44;;;;;;;9.03;7.08;;;;;;;14.17;100.00;100823.50;1766862;78;21808;-65
2022/11/12 12:50:31;;;;;;;11.88;7.60;;;;;;;14.22;100.00;100820.19;1748508;79;21534;-66
2022/11/12 12:53:32;;;;;;;8.60;6.75;;;;;;;14.19;100.00;100818.54;1748011;80;21559;-62
2022/11/12 12:56:26;;;;;;;9.68;7.17;;;;;;;14.12;100.00;100817.52;1775282;78;21605;-64
2022/11/12 12:59:24;;;;;;;9.73;7.10;;;;;;;13.99;100.00;100819.77;1740975;80;21539;-66
2022/11/12 13:02:22;;;;;;;10.90;7.28;;;;;;;13.91;100.00;100821.38;1746504;79;21914;-66
2022/11/12 13:05:29;;;;;;;10.55;8.10;;;;;;;13.70;100.00;100821.73;1761899;78;21070;-67
2022/11/12 13:08:23;;;;;;;12.20;8.70;;;;;;;13.60;100.00;100819.04;1703419;81;21041;-66
2022/11/12 13:11:09;;;;;;;18.07;12.25;;;;;;;13.44;100.00;100821.36;1742066;79;21034;-66
2022/11/12 13:13:54;;;;;;;12.50;8.38;;;;;;;13.34;100.00;100830.55;1737434;80;21411;-65
2022/11/12 13:16:54;;;;;;;13.45;8.73;;;;;;;13.31;100.00;100831.96;1770017;78;22005;-65
2022/11/12 13:19:55;;;;;;;12.90;9.53;;;;;;;13.19;100.00;100832.77;1738964;79;21560;-67
2022/11/12 13:22:48;;;;;;;11.75;7.67;;;;;;;13.09;100.00;100834.44;1743489;79;21470;-66
2022/11/12 13:25:34;;;;;;;13.83;8.83;;;;;;;12.98;100.00;100834.36;1757299;80;20971;-65
2022/11/12 13:28:19;;;;;;;14.13;9.58;;;;;;;12.87;100.00;100840.46;1771029;79;21574;-65
2022/11/12 13:31:25;;;;;;;9.53;7.45;;;;;;;12.87;100.00;100843.56;1735524;80;21881;-64
2022/11/12 13:34:28;;;;;;;10.10;6.92;;;;;;;12.84;100.00;100837.45;1760738;79;21088;-66
2022/11/12 13:37:20;;;;;;;10.48;6.97;;;;;;;12.75;100.00;100836.45;1754077;79;21639;-65
2022/11/12 13:40:13;;;;;;;10.93;7.55;;;;;;;12.72;100.00;100835.23;1754147;79;21442;-67
2022/11/12 13:43:13;;;;;;;9.10;7.78;;;;;;;12.69;100.00;100835.31;1752453;80;21539;-61
2022/11/12 13:46:10;;;;;;;10.72;8.18;;;;;;;12.60;100.00;100834.29;1754970;79;21905;-62
2022/11/12 13:49:07;;;;;;;11.03;8.40;;;;;;;12.55;100.00;100830.96;1761267;79;28714;-62
2022/11/12 13:51:52;;;;;;;10.72;8.03;;;;;;;12.50;100.00;100825.81;1751963;78;21648;-61
2022/11/12 13:54:37;;;;;;;10.40;8.25;;;;;;;12.41;100.00;100828.31;1756371;78;21422;-61
2022/11/12 13:57:29;;;;;;;10.28;8.63;;;;;;;12.37;100.00;100830.61;1825777;77;21447;-61
2022/11/12 14:00:24;;;;;;;9.95;7.70;;;;;;;12.28;100.00;100826.94;1823860;77;21576;-60
2022/11/12 14:03:14;;;;;;;9.25;8.18;;;;;;;12.26;100.00;100829.65;1803788;77;21524;-60
2022/11/12 16:28:20;;;;;;;6.65;6.05;;;;;;;9.43;100.00;100826.11;1789733;78;26884;-67
2022/11/12 16:31:06;;;;;;;6.87;6.17;;;;;;;9.71;100.00;100842.19;1767150;80;21033;-65
2022/11/12 16:33:51;;;;;;;6.95;6.25;;;;;;;9.88;100.00;100841.84;1756887;80;21901;-66
2022/11/12 16:36:38;;;;;;;7.08;6.30;;;;;;;10.01;100.00;100845.53;1758697;80;21640;-65
2022/11/12 16:39:23;;;;;;;7.55;6.28;;;;;;;10.11;100.00;100840.05;1759187;80;21596;-64
2022/11/12 16:42:11;;;;;;;7.00;5.95;;;;;;;10.20;100.00;100844.69;1762549;80;21647;-69
2022/11/12 16:44:56;;;;;;;6.25;5.65;;;;;;;10.29;100.00;100832.66;1759959;80;21658;-64
2022/11/12 16:47:48;;;;;;;6.60;5.78;;;;;;;10.32;100.00;100840.48;1766016;80;21909;-65
2022/11/12 16:50:34;;;;;;;6.17;5.58;;;;;;;10.41;100.00;100836.33;1763739;80;21542;-64
2022/11/12 16:53:19;;;;;;;6.17;5.58;;;;;;;10.45;100.00;100843.70;1764934;80;21711;-64
2022/11/12 16:56:13;;;;;;;7.33;5.70;;;;;;;10.46;100.00;100838.41;1759527;80;21029;-64
2022/11/12 16:58:59;;;;;;;7.65;6.45;;;;;;;10.51;100.00;100840.95;1769352;80;21529;-64
2022/11/12 17:01:44;;;;;;;6.67;6.03;;;;;;;10.55;100.00;100849.18;1754354;80;21796;-67
2022/11/12 17:04:30;;;;;;;6.97;5.67;;;;;;;10.60;100.00;100854.31;1759007;80;21667;-65
2022/11/12 17:07:15;;;;;;;6.25;5.47;;;;;;;10.62;100.00;100852.51;1757938;80;21561;-66
2022/11/12 17:10:00;;;;;;;7.55;5.97;;;;;;;10.62;100.00;100851.20;1768565;80;20978;-66
2022/11/12 17:12:47;;;;;;;6.60;5.97;;;;;;;10.62;100.00;100858.62;1765011;80;21612;-65
2022/11/12 17:15:33;;;;;;;8.58;6.15;;;;;;;10.64;100.00;100853.34;1755022;80;21585;-66
2022/11/12 17:18:18;;;;;;;8.45;5.97;;;;;;;10.65;100.00;100850.67;1757559;80;21021;-67
2022/11/12 17:21:16;;;;;;;5.87;5.28;;;;;;;10.67;100.00;100851.96;1768249;80;21565;-66
2022/11/12 17:24:01;;;;;;;;;;;;;;;10.69;100.00;100845.75;1763935;80;21575;-65
2022/11/12 17:26:46;;;;;;;6.97;5.37;;;;;;;10.59;100.00;100849.52;1750509;80;20169;-65
2022/11/12 17:29:32;;;;;;;6.65;5.85;;;;;;;10.61;100.00;100842.91;1748388;80;21880;-66
2022/11/12 17:32:17;;;;;;;6.03;5.33;;;;;;;10.62;100.00;100844.16;1758736;80;21674;-64
2022/11/12 17:35:04;;;;;;;6.55;5.80;;;;;;;10.67;100.00;100849.33;1753600;80;21580;-64
2022/11/12 17:37:50;;;;;;;6.10;5.53;;;;;;;10.65;100.00;100851.98;1755016;80;21423;-66
2022/11/12 17:40:36;;;;;;;7.97;6.05;;;;;;;10.68;100.00;100852.36;1763729;80;21018;-66
2022/11/12 17:43:21;;;;;;;8.00;5.40;;;;;;;10.70;100.00;100853.22;1756184;80;21894;-67
2022/11/12 17:46:07;;;;;;;9.50;6.97;;;;;;;10.75;100.00;100863.61;1758277;80;21510;-66
2022/11/12 17:48:54;;;;;;;7.97;6.47;;;;;;;10.70;100.00;100854.07;1758484;80;21498;-65
2022/11/12 17:51:39;;;;;;;10.13;6.05;;;;;;;10.69;100.00;100860.67;1751185;80;21525;-66
2022/11/12 17:54:24;;;;;;;8.18;6.25;;;;;;;10.74;100.00;100857.92;1756336;80;21434;-65
2022/11/12 17:57:09;;;;;;;7.95;6.40;;;;;;;10.77;100.00;100861.34;1747049;80;21726;-65
2022/11/12 17:59:54;;;;;;;7.42;6.28;;;;;;;10.77;100.00;100854.77;1763198;80;21600;-66
2022/11/12 18:02:40;;;;;;;7.70;6.85;;;;;;;10.78;100.00;100859.60;1742907;80;21565;-68
2022/11/12 18:05:26;;;;;;;8.90;6.70;;;;;;;10.79;100.00;100863.94;1765317;80;21490;-66
2022/11/12 18:08:11;;;;;;;9.53;6.75;;;;;;;10.79;100.00;100867.89;1765258;80;21576;-66
2022/11/12 18:10:58;;;;;;;10.03;6.83;;;;;;;10.75;100.00;100872.81;1757795;80;21442;-66
2022/11/12 18:13:44;;;;;;;9.85;6.90;;;;;;;10.76;100.00;100874.10;1752838;80;21496;-66
2022/11/12 18:16:30;;;;;;;8.35;7.50;;;;;;;10.77;100.00;100869.70;1748847;80;21640;-66
2022/11/12 18:19:16;;;;;;;10.80;7.75;;;;;;;10.75;100.00;100873.67;1763379;80;21549;-64
2022/11/12 18:22:01;;;;;;;9.68;7.22;;;;;;;10.79;100.00;100884.53;1759410;80;21498;-62
2022/11/12 18:24:47;;;;;;;7.62;6.80;;;;;;;10.77;100.00;100875.81;1765457;80;21941;-63
2022/11/12 18:27:34;;;;;;;11.80;7.78;;;;;;;10.78;100.00;100864.41;1756451;80;21524;-64
2022/11/12 18:34:40;;;;;;;9.40;6.95;;;;;;;10.06;100.00;100904.98;1788959;78;23158;-67
2022/11/12 18:37:25;;;;;;;8.03;6.55;;;;;;;10.44;100.00;100895.89;1767041;80;21009;-66
2022/11/12 18:40:11;;;;;;;14.45;7.22;;;;;;;10.42;100.00;100891.12;1758200;79;21870;-66
2022/11/12 18:42:56;;;;;;;8.55;6.72;;;;;;;10.46;100.00;100887.52;1757935;80;21532;-67
2022/11/12 18:45:42;;;;;;;8.80;6.55;;;;;;;10.47;100.00;100886.59;1765359;80;21555;-66
2022/11/12 18:48:28;;;;;;;8.33;6.55;;;;;;;10.46;100.00;100887.06;1755582;80;21559;-66
2022/11/12 18:51:15;;;;;;;8.50;7.15;;;;;;;10.44;100.00;100891.95;1764031;80;21584;-66
2022/11/12 18:54:00;;;;;;;9.80;7.30;;;;;;;10.44;100.00;100895.44;1761743;79;21830;-67
2022/11/12 18:56:46;;;;;;;9.35;7.08;;;;;;;10.46;100.00;100889.69;1757464;80;21574;-66
2022/11/12 18:59:31;;;;;;;8.70;7.40;;;;;;;10.46;100.00;100884.89;1766684;79;20945;-68
2022/11/12 19:02:16;;;;;;;7.58;6.87;;;;;;;10.47;100.00;100887.91;1761941;80;21513;-66
2022/11/12 19:05:02;;;;;;;8.23;7.17;;;;;;;10.48;100.00;100892.29;1762080;80;21075;-66
2022/11/12 19:07:47;;;;;;;9.10;7.05;;;;;;;10.41;100.00;100886.28;1767483;80;21830;-66
2022/11/12 19:10:33;;;;;;;8.55;7.03;;;;;;;10.41;100.00;100895.95;1763254;80;21084;-67
2022/11/12 19:13:19;;;;;;;7.25;6.53;;;;;;;10.40;100.00;100888.52;1762469;80;21553;-67
2022/11/12 19:16:10;;;;;;;8.20;6.67;;;;;;;10.35;100.00;100885.12;1769405;80;21482;-66
2022/11/12 19:18:55;;;;;;;8.23;7.42;;;;;;;10.40;100.00;100888.52;1769658;80;21653;-67
2022/11/12 19:21:41;;;;;;;8.20;6.80;;;;;;;10.43;100.00;100893.69;1767236;80;21784;-67
2022/11/12 19:24:26;;;;;;;7.75;6.75;;;;;;;10.42;100.00;100886.72;1762611;80;21018;-66
2022/11/12 19:27:12;;;;;;;7.75;6.30;;;;;;;10.41;100.00;100888.06;1765578;79;21473;-67
2022/11/12 19:29:56;;;;;;;6.85;6.15;;;;;;;10.42;100.00;100890.66;1756941;79;21521;-67
2022/11/12 19:32:42;;;;;;;6.83;6.17;;;;;;;10.44;100.00;100903.32;1760619;80;21574;-65
2022/11/12 19:35:27;;;;;;;7.75;6.87;;;;;;;10.48;100.00;100897.55;1716812;80;21988;-66
2022/11/12 19:38:32;;;;;;;7.55;6.65;;;;;;;10.49;100.00;100888.73;1745637;80;21560;-64
2022/11/12 19:41:17;;;;;;;9.33;6.30;;;;;;;10.49;100.00;100890.95;1673141;85;21532;-67
2022/11/12 19:44:02;;;;;;;6.87;6.17;;;;;;;10.50;100.00;100901.00;1671953;84;20990;-65
2022/11/12 19:46:47;;;;;;;6.83;5.85;;;;;;;10.54;100.00;100889.52;1672358;85;21545;-66
2022/11/12 19:49:33;;;;;;;6.62;6.00;;;;;;;10.58;100.00;100886.36;1674246;83;21856;-66
2022/11/12 19:52:19;;;;;;;8.73;6.80;;;;;;;10.57;100.00;100890.77;1672221;83;21581;-64
2022/11/12 19:55:05;;;;;;;7.15;5.83;;;;;;;10.54;100.00;100901.34;1669238;84;21473;-65
2022/11/12 19:57:51;;;;;;;7.50;5.80;;;;;;;10.59;100.00;100892.91;1665699;85;21496;-66
2022/11/12 20:00:37;;;;;;;6.95;6.25;;;;;;;10.56;100.00;100887.70;1671605;84;21030;-65
2022/11/12 20:03:24;;;;;;;6.78;6.05;;;;;;;10.54;100.00;100886.88;1670469;83;22109;-65
2022/11/12 20:06:16;;;;;;;5.65;5.15;;;;;;;10.56;100.00;100884.22;1673362;85;21422;-64
2022/11/12 20:09:02;;;;;;;6.62;5.92;;;;;;;10.52;100.00;100880.80;1677085;83;21537;-64
2022/11/12 20:11:49;;;;;;;5.80;5.25;;;;;;;10.56;100.00;100884.22;1668677;84;21562;-65
2022/11/12 20:14:35;;;;;;;6.67;5.45;;;;;;;10.59;100.00;100880.22;1673196;85;21600;-65
2022/11/12 20:17:21;;;;;;;5.67;5.08;;;;;;;10.63;100.00;100879.24;1672133;84;21881;-65
2022/11/12 20:20:08;;;;;;;6.05;5.28;;;;;;;10.66;100.00;100871.26;1672784;84;21431;-65
2022/11/12 20:22:53;;;;;;;5.65;5.10;;;;;;;10.67;100.00;100867.73;1672059;85;21526;-65
2022/11/12 20:25:38;;;;;;;6.35;5.70;;;;;;;10.64;100.00;100864.74;1671092;85;21042;-65
2022/11/12 20:28:23;;;;;;;6.40;5.28;;;;;;;10.63;100.00;100859.05;1609532;87;21470;-64
2022/11/12 20:31:14;;;;;;;7.40;5.22;;;;;;;10.63;100.00;100855.11;1673692;84;21703;-65
2022/11/12 20:34:00;;;;;;;5.55;4.83;;;;;;;10.65;100.00;100852.45;1673066;85;21463;-66
2022/11/12 20:36:46;;;;;;;5.75;4.97;;;;;;;10.65;100.00;100857.71;1665700;84;21034;-66
2022/11/12 20:39:31;;;;;;;5.92;5.33;;;;;;;10.68;100.00;100857.19;1662934;85;21541;-65
2022/11/12 21:06:27;;;;;;;5.78;4.28;;;;;;;10.62;100.00;100839.36;1668457;85;21073;-65
2022/11/12 21:09:12;;;;;;;5.20;4.17;;;;;;;10.63;100.00;100830.13;1655430;85;21644;-65
2022/11/12 21:11:58;;;;;;;5.30;4.70;;;;;;;10.62;100.00;100825.75;1654806;84;21018;-65
2022/11/12 21:14:43;;;;;;;7.83;4.80;;;;;;;10.61;100.00;100823.19;1663949;85;21679;-65
2022/11/12 21:17:28;;;;;;;4.62;4.17;;;;;;;10.64;100.00;100825.72;1672865;84;21554;-64
2022/11/12 21:20:15;;;;;;;5.15;4.33;;;;;;;10.69;100.00;100835.23;1672564;85;21537;-67
2022/11/12 21:23:01;;;;;;;4.75;4.33;;;;;;;10.70;100.00;100831.71;1668676;85;20974;-64
2022/11/12 21:25:45;;;;;;;6.60;4.12;;;;;;;10.76;100.00;100824.12;1665469;83;21545;-65
2022/11/12 21:28:35;;;;;;;4.92;3.80;;;;;;;10.79;100.00;100825.34;1671380;85;21451;-65
2022/11/12 21:31:28;;;;;;;5.85;4.17;;;;;;;10.78;100.00;100817.52;1671388;85;21565;-65
2022/11/12 21:34:14;;;;;;;4.28;3.80;;;;;;;10.78;100.00;100832.84;1668357;85;21792;-64